createdAt,value
2023-03-01T00:01:17.549Z,4.25
2023-03-01T00:03:44.700Z,4.50
2023-03-01T00:06:12.628Z,3.47
2023-03-01T00:08:40.078Z,3.35
2023-03-01T00:11:24.456Z,4.97
2023-03-01T00:13:54.009Z,4.30
2023-03-01T00:16:24.839Z,3.13
2023-03-01T00:18:52.056Z,3.55
2023-03-01T00:21:21.102Z,3.03
2023-03-01T00:23:49.794Z,3.67
2023-03-01T00:26:18.955Z,2.90
2023-03-01T00:28:46.851Z,3.92
2023-03-01T00:31:16.994Z,3.58
2023-03-01T00:33:44.760Z,4.18
2023-03-01T00:36:13.715Z,3.90
2023-03-01T00:38:43.045Z,3.35
2023-03-01T00:41:13.223Z,3.83
2023-03-01T00:43:40.365Z,3.45
2023-03-01T00:46:16.847Z,4.75
2023-03-01T00:48:44.290Z,3.20
2023-03-01T00:51:15.892Z,2.88
2023-03-01T00:53:44.113Z,3.00
2023-03-01T00:56:12.783Z,3.33
2023-03-01T00:58:40.124Z,3.30
2023-03-01T01:01:19.329Z,2.60
2023-03-01T01:03:53.509Z,3.72
2023-03-01T01:06:23.574Z,3.65
2023-03-01T01:08:52.194Z,2.83
2023-03-01T01:11:20.572Z,3.45
2023-03-01T01:13:48.855Z,2.45
2023-03-01T01:16:17.810Z,3.67
2023-03-01T01:18:45.667Z,3.03
2023-03-01T01:21:16.580Z,3.75
2023-03-01T01:23:44.735Z,3.97
2023-03-01T01:26:18.095Z,2.75
2023-03-01T01:28:45.238Z,3.15
2023-03-01T01:31:12.430Z,2.53
2023-03-01T01:33:39.928Z,3.20
2023-03-01T01:36:07.881Z,3.22
2023-03-01T01:38:36.000Z,3.00
2023-03-01T01:41:03.148Z,2.95
2023-03-01T01:43:34.835Z,2.88
2023-03-01T01:46:28.044Z,2.78
2023-03-01T01:49:09.385Z,3.10
2023-03-01T01:51:41.499Z,2.58
2023-03-01T01:54:15.367Z,3.05
2023-03-01T01:56:47.527Z,2.38
2023-03-01T01:59:15.887Z,2.47
2023-03-01T02:01:43.905Z,2.38
2023-03-01T02:04:11.794Z,3.35
2023-03-01T02:06:46.189Z,3.10
2023-03-01T02:09:16.965Z,2.42
2023-03-01T02:11:45.517Z,2.83
2023-03-01T02:14:12.876Z,3.17
2023-03-01T02:16:40.155Z,3.75
2023-03-01T02:19:09.244Z,2.22
2023-03-01T02:21:59.319Z,2.53
2023-03-01T02:24:55.873Z,3.72
2023-03-01T02:27:27.165Z,2.70
2023-03-01T02:29:55.732Z,2.92
2023-03-01T02:32:26.345Z,2.20
2023-03-01T02:34:55.915Z,2.63
2023-03-01T02:37:25.876Z,2.85
2023-03-01T02:40:00.965Z,2.83
2023-03-01T02:42:34.331Z,2.72
2023-03-01T02:45:02.253Z,3.50
2023-03-01T02:47:29.406Z,2.58
2023-03-01T02:49:56.576Z,2.60
2023-03-01T02:52:48.353Z,2.90
2023-03-01T02:55:17.244Z,2.15
2023-03-01T02:57:47.162Z,3.70
2023-03-01T03:00:27.928Z,2.17
2023-03-01T03:02:58.009Z,2.10
2023-03-01T03:05:29.431Z,2.33
2023-03-01T03:07:56.860Z,3.40
2023-03-01T03:10:30.171Z,2.47
2023-03-01T03:13:00.152Z,2.97
2023-03-01T03:15:30.160Z,2.67
2023-03-01T03:17:59.337Z,2.90
2023-03-01T03:20:28.302Z,2.75
2023-03-01T03:22:56.898Z,2.90
2023-03-01T03:25:24.319Z,2.53
2023-03-01T03:27:57.907Z,2.67
2023-03-01T03:30:27.806Z,3.33
2023-03-01T03:32:55.391Z,2.10
2023-03-01T03:35:25.651Z,2.25
2023-03-01T03:38:02.956Z,2.75
2023-03-01T03:40:33.930Z,2.30
2023-03-01T03:43:01.259Z,2.53
2023-03-01T03:45:29.343Z,2.22
2023-03-01T03:47:56.574Z,1.90
2023-03-01T03:50:23.691Z,2.33
2023-03-01T03:52:50.868Z,2.13
2023-03-01T03:55:20.445Z,4.43
2023-03-01T03:57:55.193Z,2.53
2023-03-01T04:00:25.014Z,3.17
2023-03-01T04:02:52.892Z,2.60
2023-03-01T04:05:20.411Z,2.55
2023-03-01T04:07:48.037Z,2.92
2023-03-01T04:10:18.398Z,2.33
2023-03-01T04:12:45.582Z,2.45
2023-03-01T04:15:16.426Z,2.33
2023-03-01T04:17:47.818Z,2.38
2023-03-01T04:20:18.960Z,2.80
2023-03-01T04:22:49.135Z,3.60
2023-03-01T04:25:16.277Z,2.03
2023-03-01T04:27:43.338Z,2.38
2023-03-01T04:30:11.580Z,2.47
2023-03-01T04:32:38.900Z,2.10
2023-03-01T04:35:06.232Z,1.90
2023-03-01T04:37:33.466Z,3.15
2023-03-01T04:40:00.877Z,2.28
2023-03-01T04:42:28.001Z,2.78
2023-03-01T04:44:55.080Z,1.70
2023-03-01T04:47:22.246Z,3.45
2023-03-01T04:49:49.364Z,2.47
2023-03-01T04:52:17.464Z,2.28
2023-03-01T04:54:44.563Z,2.25
2023-03-01T04:57:11.670Z,2.67
2023-03-01T04:59:38.730Z,2.40
2023-03-01T05:02:05.923Z,2.55
2023-03-01T05:04:33.259Z,1.67
2023-03-01T05:07:00.442Z,1.90
2023-03-01T05:09:27.559Z,2.10
2023-03-01T05:11:54.801Z,2.28
2023-03-01T05:14:21.945Z,2.55
2023-03-01T05:16:49.580Z,4.10
2023-03-01T05:19:16.686Z,2.22
2023-03-01T05:22:04.605Z,2.92
2023-03-01T05:24:33.867Z,2.25
2023-03-01T05:27:02.697Z,1.90
2023-03-01T05:29:31.742Z,3.25
2023-03-01T05:32:02.148Z,2.20
2023-03-01T05:36:59.192Z,2.47
2023-03-01T05:39:28.177Z,4.07
2023-03-01T05:41:56.972Z,3.10
2023-03-01T05:44:24.906Z,3.28
2023-03-01T05:46:52.332Z,3.00
2023-03-01T05:49:20.597Z,4.15
2023-03-01T05:51:52.791Z,2.30
2023-03-01T05:54:21.428Z,4.20
2023-03-01T05:56:48.877Z,3.85
2023-03-01T05:59:17.492Z,3.22
2023-03-01T06:01:44.876Z,3.10
2023-03-01T06:04:12.043Z,3.38
2023-03-01T06:06:39.325Z,3.97
2023-03-01T06:09:08.557Z,2.90
2023-03-01T06:11:37.253Z,3.17
2023-03-01T06:14:05.444Z,3.22
2023-03-01T06:16:32.876Z,3.00
2023-03-01T06:19:00.187Z,3.70
2023-03-01T06:21:27.484Z,4.40
2023-03-01T06:23:55.152Z,3.00
2023-03-01T06:26:22.383Z,3.40
2023-03-01T06:28:49.602Z,3.53
2023-03-01T06:31:16.786Z,3.58
2023-03-01T06:33:45.830Z,3.65
2023-03-01T06:36:13.354Z,4.25
2023-03-01T06:38:41.884Z,5.50
2023-03-01T06:41:09.125Z,3.67
2023-03-01T06:43:36.327Z,5.90
2023-03-01T06:46:06.601Z,4.55
2023-03-01T06:48:34.931Z,3.85
2023-03-01T06:51:02.713Z,4.60
2023-03-01T06:53:30.762Z,6.50
2023-03-01T06:55:58.655Z,3.40
2023-03-01T06:58:25.783Z,3.35
2023-03-01T07:00:53.155Z,4.20
2023-03-01T07:03:20.708Z,4.47
2023-03-01T07:05:52.789Z,4.75
2023-03-01T07:08:20.857Z,5.40
2023-03-01T07:10:48.126Z,4.82
2023-03-01T07:13:15.406Z,4.10
2023-03-01T07:15:42.799Z,6.47
2023-03-01T07:18:10.120Z,6.50
2023-03-01T07:20:38.204Z,4.88
2023-03-01T07:23:07.715Z,7.05
2023-03-01T07:25:35.117Z,5.33
2023-03-01T07:28:02.352Z,7.13
2023-03-01T07:30:29.747Z,6.00
2023-03-01T07:32:58.685Z,5.13
2023-03-01T07:35:29.293Z,10.48
2023-03-01T07:37:56.512Z,5.78
2023-03-01T07:40:24.008Z,7.63
2023-03-01T07:42:56.091Z,7.50
2023-03-01T07:45:23.341Z,7.28
2023-03-01T07:47:52.331Z,7.10
2023-03-01T07:50:20.191Z,7.57
2023-03-01T07:52:48.383Z,12.75
2023-03-01T07:55:16.773Z,7.88
2023-03-01T07:57:44.547Z,7.55
2023-03-01T08:00:13.053Z,7.63
2023-03-01T08:02:41.568Z,7.35
2023-03-01T08:05:10.224Z,7.70
2023-03-01T08:07:37.356Z,8.23
2023-03-01T08:10:04.902Z,8.40
2023-03-01T08:12:32.123Z,9.05
2023-03-01T08:14:59.388Z,7.95
2023-03-01T08:17:27.165Z,7.93
2023-03-01T08:19:54.358Z,8.80
2023-03-01T08:22:21.583Z,8.55
2023-03-01T08:24:48.920Z,11.18
2023-03-01T08:27:17.684Z,10.35
2023-03-01T08:29:45.863Z,16.27
2023-03-01T08:32:13.092Z,12.15
2023-03-01T08:34:41.620Z,15.70
2023-03-01T08:37:09.924Z,12.82
2023-03-01T08:39:37.171Z,13.57
2023-03-01T08:42:05.428Z,13.85
2023-03-01T08:44:32.664Z,12.98
2023-03-01T08:46:59.766Z,9.77
2023-03-01T08:49:27.748Z,10.88
2023-03-01T08:51:55.549Z,11.05
2023-03-01T08:54:23.732Z,13.70
2023-03-01T08:56:51.052Z,10.90
2023-03-01T08:59:19.236Z,11.85
2023-03-01T09:01:46.696Z,16.20
2023-03-01T09:04:15.903Z,11.93
2023-03-01T09:06:44.567Z,11.38
2023-03-01T09:09:17.245Z,13.25
2023-03-01T09:11:47.826Z,13.32
2023-03-01T09:14:15.838Z,14.20
2023-03-01T09:16:43.396Z,13.73
2023-03-01T09:19:10.752Z,16.13
2023-03-01T09:21:41.122Z,15.77
2023-03-01T09:24:16.279Z,23.17
2023-03-01T09:26:44.154Z,15.70
2023-03-01T09:29:11.452Z,13.98
2023-03-01T09:31:39.182Z,15.18
2023-03-01T09:34:06.455Z,16.25
2023-03-01T09:36:34.612Z,16.40
2023-03-01T09:39:04.179Z,20.63
2023-03-01T09:42:01.194Z,15.55
2023-03-01T09:44:53.459Z,16.92
2023-03-01T09:47:24.726Z,14.82
2023-03-01T09:50:23.020Z,15.68
2023-03-01T09:53:07.117Z,17.60
2023-03-01T09:56:00.011Z,17.45
2023-03-01T09:59:04.777Z,16.38
2023-03-01T10:01:42.066Z,15.15
2023-03-01T10:04:35.878Z,15.73
2023-03-01T10:07:39.207Z,16.77
2023-03-01T10:10:08.579Z,22.77
2023-03-01T10:12:40.606Z,23.33
2023-03-01T10:15:19.261Z,16.58
2023-03-01T10:18:11.788Z,17.92
2023-03-01T10:20:58.581Z,14.70
2023-03-01T10:23:29.209Z,17.60
2023-03-01T10:26:28.430Z,16.63
2023-03-01T10:29:05.221Z,18.02
2023-03-01T10:31:51.533Z,17.02
2023-03-01T10:34:29.177Z,17.90
2023-03-01T10:37:10.998Z,14.13
2023-03-01T10:39:38.430Z,17.10
2023-03-01T10:42:20.087Z,12.70
2023-03-01T10:44:49.879Z,14.60
2023-03-01T10:47:23.110Z,13.05
2023-03-01T10:50:06.878Z,14.38
2023-03-01T10:52:41.498Z,13.63
2023-03-01T10:55:32.739Z,14.48
2023-03-01T10:58:23.523Z,13.65
2023-03-01T11:01:38.486Z,15.02
2023-03-01T11:04:15.143Z,15.45
2023-03-01T11:06:45.008Z,12.43
2023-03-01T11:09:28.856Z,15.73
2023-03-01T11:11:58.166Z,13.20
2023-03-01T11:14:28.224Z,15.60
2023-03-01T11:19:28.187Z,22.58
2023-03-01T11:22:17.827Z,21.13
2023-03-01T11:25:07.126Z,19.02
2023-03-01T11:27:42.365Z,27.05
2023-03-01T11:30:31.956Z,18.35
2023-03-01T11:33:38.865Z,18.27
2023-03-01T11:36:43.363Z,18.80
2023-03-01T11:39:48.097Z,19.77
2023-03-01T11:42:29.298Z,17.90
2023-03-01T11:45:09.696Z,18.83
2023-03-01T11:48:16.536Z,20.95
2023-03-01T11:50:49.617Z,21.10
2023-03-01T11:53:50.308Z,21.17
2023-03-01T11:56:36.716Z,20.77
2023-03-01T11:59:43.549Z,17.10
2023-03-01T12:02:40.528Z,16.40
2023-03-01T12:05:37.726Z,18.48
2023-03-01T12:08:21.560Z,19.85
2023-03-01T12:11:09.459Z,14.77
2023-03-01T12:14:04.240Z,16.63
2023-03-01T12:17:02.192Z,17.60
2023-03-01T12:20:05.501Z,16.52
2023-03-01T12:22:39.799Z,14.77
2023-03-01T12:25:30.707Z,14.35
2023-03-01T12:28:29.012Z,17.75
2023-03-01T12:31:26.577Z,17.08
2023-03-01T12:34:32.858Z,16.23
2023-03-01T12:37:42.452Z,17.50
2023-03-01T12:43:07.755Z,15.95
2023-03-01T12:46:14.567Z,14.02
2023-03-01T12:49:17.520Z,16.67
2023-03-01T12:51:59.382Z,18.35
2023-03-01T12:54:31.455Z,17.00
2023-03-01T12:57:16.893Z,15.40
2023-03-01T13:00:12.866Z,13.52
2023-03-01T13:02:57.544Z,14.63
2023-03-01T13:06:03.528Z,17.00
2023-03-01T13:08:45.222Z,18.90
2023-03-01T13:11:21.904Z,13.50
2023-03-01T13:13:50.175Z,15.15
2023-03-01T13:16:46.680Z,14.10
2023-03-01T13:19:30.409Z,19.75
2023-03-01T13:21:57.762Z,13.10
2023-03-01T13:24:34.883Z,12.05
2023-03-01T13:27:26.109Z,11.07
2023-03-01T13:29:55.538Z,12.57
2023-03-01T13:32:43.644Z,16.48
2023-03-01T13:35:45.779Z,11.10
2023-03-01T13:38:52.628Z,11.60
2023-03-01T13:41:52.909Z,13.70
2023-03-01T13:46:57.585Z,11.63
2023-03-01T13:49:41.071Z,11.40
2023-03-01T13:52:49.562Z,9.55
2023-03-01T13:55:26.062Z,10.85
2023-03-01T13:57:58.963Z,12.50
2023-03-01T14:00:37.072Z,12.18
2023-03-01T14:03:14.867Z,9.43
2023-03-01T14:05:45.544Z,9.68
2023-03-01T14:08:25.667Z,8.45
2023-03-01T14:14:04.849Z,6.25
2023-03-01T14:16:55.122Z,7.43
2023-03-01T14:22:29.626Z,7.45
2023-03-01T14:25:03.799Z,6.57
2023-03-01T14:27:40.594Z,7.15
2023-03-01T14:30:17.133Z,9.07
2023-03-01T14:32:44.433Z,7.75
2023-03-01T14:35:33.682Z,8.45
2023-03-01T14:38:01.820Z,9.97
2023-03-01T14:40:38.361Z,7.03
2023-03-01T14:43:13.327Z,7.65
2023-03-01T14:45:40.873Z,9.00
2023-03-01T14:48:13.896Z,9.13
2023-03-01T14:50:45.766Z,6.80
2023-03-01T14:53:26.717Z,8.48
2023-03-01T14:55:57.320Z,7.35
2023-03-01T14:58:26.373Z,9.75
2023-03-01T15:01:03.133Z,10.55
2023-03-01T15:03:49.056Z,11.50
2023-03-01T15:06:21.823Z,12.40
2023-03-01T15:08:53.538Z,9.07
2023-03-01T15:11:34.385Z,12.02
2023-03-01T15:14:01.582Z,10.18
2023-03-01T15:16:32.078Z,10.38
2023-03-01T15:19:06.051Z,10.38
2023-03-01T15:21:39.248Z,11.02
2023-03-01T15:24:23.890Z,13.25
2023-03-01T15:26:58.810Z,9.30
2023-03-01T15:29:31.307Z,12.88
2023-03-01T15:32:07.688Z,10.07
2023-03-01T15:34:38.126Z,7.35
2023-03-01T15:37:07.466Z,9.55
2023-03-01T15:39:55.173Z,8.63
2023-03-01T15:42:40.620Z,8.48
2023-03-01T15:45:27.763Z,8.43
2023-03-01T15:48:03.006Z,8.82
2023-03-01T15:50:36.975Z,9.95
2023-03-01T15:53:12.616Z,7.63
2023-03-01T15:55:39.741Z,8.10
2023-03-01T15:58:21.652Z,7.53
2023-03-01T16:01:00.784Z,9.63
2023-03-01T16:03:31.416Z,7.63
2023-03-01T16:05:58.528Z,9.60
2023-03-01T16:08:25.772Z,8.73
2023-03-01T16:10:54.735Z,10.13
2023-03-01T16:13:21.978Z,14.93
2023-03-01T16:15:49.143Z,7.22
2023-03-01T16:18:16.277Z,11.10
2023-03-01T16:20:43.384Z,7.63
2023-03-01T16:23:12.649Z,9.07
2023-03-01T16:25:42.890Z,11.48
2023-03-01T16:30:41.468Z,10.43
2023-03-01T16:35:57.021Z,7.78
2023-03-01T16:38:24.157Z,10.48
2023-03-01T16:40:52.550Z,10.40
2023-03-01T16:43:19.941Z,11.55
2023-03-01T16:45:47.773Z,8.38
2023-03-01T16:48:15.344Z,8.32
2023-03-01T16:50:42.560Z,10.73
2023-03-01T16:53:10.336Z,10.52
2023-03-01T16:55:37.637Z,10.32
2023-03-01T16:58:05.590Z,9.20
2023-03-01T17:00:32.729Z,8.77
2023-03-01T17:02:59.935Z,13.07
2023-03-01T17:05:27.148Z,7.63
2023-03-01T17:07:56.739Z,9.55
2023-03-01T17:10:23.975Z,6.68
2023-03-01T17:12:51.727Z,10.88
2023-03-01T17:15:19.019Z,12.35
2023-03-01T17:17:46.114Z,20.85
2023-03-01T17:20:13.674Z,19.90
2023-03-01T17:22:40.796Z,13.40
2023-03-01T17:25:10.364Z,14.10
2023-03-01T17:27:38.892Z,12.85
2023-03-01T17:30:10.910Z,15.80
2023-03-01T17:32:38.155Z,18.23
2023-03-01T17:35:05.980Z,15.75
2023-03-01T17:37:33.116Z,15.05
2023-03-01T17:40:00.332Z,11.52
2023-03-01T17:42:27.516Z,13.40
2023-03-01T17:44:54.756Z,12.13
2023-03-01T17:47:21.970Z,17.30
2023-03-01T17:49:49.119Z,10.60
2023-03-01T17:52:16.318Z,11.23
2023-03-01T17:54:43.509Z,11.10
2023-03-01T17:57:10.712Z,9.23
2023-03-01T17:59:38.114Z,10.57
2023-03-01T18:02:05.340Z,11.93
2023-03-01T18:04:32.702Z,7.30
2023-03-01T18:07:00.226Z,11.63
2023-03-01T18:09:28.469Z,6.53
2023-03-01T18:11:55.619Z,10.70
2023-03-01T18:14:23.225Z,10.30
2023-03-01T18:16:50.456Z,8.57
2023-03-01T18:19:17.713Z,9.60
2023-03-01T18:21:44.827Z,9.07
2023-03-01T18:24:11.964Z,9.18
2023-03-01T18:26:40.184Z,7.25
2023-03-01T18:29:08.455Z,9.27
2023-03-01T18:31:35.667Z,8.40
2023-03-01T18:34:03.049Z,9.48
2023-03-01T18:36:34.831Z,10.68
2023-03-01T18:39:04.324Z,6.97
2023-03-01T18:41:33.132Z,10.02
2023-03-01T18:44:01.399Z,6.90
2023-03-01T18:46:28.735Z,10.35
2023-03-01T18:48:56.344Z,8.02
2023-03-01T18:51:27.253Z,8.98
2023-03-01T18:53:54.855Z,6.43
2023-03-01T18:56:21.996Z,11.60
2023-03-01T18:58:49.163Z,10.60
2023-03-01T19:01:22.237Z,9.52
2023-03-01T19:03:49.789Z,8.63
2023-03-01T19:06:17.662Z,9.57
2023-03-01T19:08:45.225Z,6.82
2023-03-01T19:11:14.289Z,8.10
2023-03-01T19:13:41.595Z,6.20
2023-03-01T19:16:14.283Z,8.57
2023-03-01T19:18:43.293Z,8.73
2023-03-01T19:21:11.674Z,8.77
2023-03-01T19:23:39.364Z,7.43
2023-03-01T19:26:09.572Z,7.28
2023-03-01T19:28:39.236Z,6.38
2023-03-01T19:31:09.570Z,10.48
2023-03-01T19:33:37.523Z,7.30
2023-03-01T19:36:04.984Z,7.90
2023-03-01T19:38:32.085Z,7.00
2023-03-01T19:40:59.344Z,5.53
2023-03-01T19:43:26.467Z,9.20
2023-03-01T19:45:54.974Z,6.93
2023-03-01T19:48:22.683Z,6.85
2023-03-01T19:50:52.484Z,6.80
2023-03-01T19:53:20.418Z,7.50
2023-03-01T19:55:47.664Z,6.13
2023-03-01T19:58:14.803Z,5.63
2023-03-01T20:00:46.416Z,7.00
2023-03-01T20:03:13.855Z,5.18
2023-03-01T20:05:43.080Z,7.30
2023-03-01T20:08:10.219Z,7.18
2023-03-01T20:10:37.407Z,6.63
2023-03-01T20:13:04.602Z,10.38
2023-03-01T20:15:31.748Z,5.85
2023-03-01T20:17:58.971Z,7.97
2023-03-01T20:20:26.095Z,4.93
2023-03-01T20:22:53.225Z,4.72
2023-03-01T20:25:20.331Z,6.00
2023-03-01T20:27:47.724Z,5.68
2023-03-01T20:30:16.113Z,5.07
2023-03-01T20:32:43.391Z,6.22
2023-03-01T20:35:13.378Z,6.18
2023-03-01T20:37:40.484Z,7.55
2023-03-01T20:40:09.770Z,5.75
2023-03-01T20:42:36.917Z,5.80
2023-03-01T20:45:05.093Z,7.38
2023-03-01T20:47:32.237Z,6.03
2023-03-01T20:50:01.646Z,6.80
2023-03-01T20:52:32.349Z,4.77
2023-03-01T20:55:03.996Z,5.65
2023-03-01T20:57:32.063Z,5.47
2023-03-01T20:59:59.175Z,7.13
2023-03-01T21:02:26.399Z,4.85
2023-03-01T21:04:53.521Z,5.57
2023-03-01T21:07:20.641Z,6.25
2023-03-01T21:09:47.802Z,4.90
2023-03-01T21:12:15.641Z,5.75
2023-03-01T21:14:42.765Z,5.93
2023-03-01T21:17:15.548Z,4.13
2023-03-01T21:19:44.618Z,5.82
2023-03-01T21:22:15.056Z,7.65
2023-03-01T21:27:10.531Z,5.90
2023-03-01T21:29:42.763Z,4.95
2023-03-01T21:32:11.224Z,5.75
2023-03-01T21:34:39.451Z,5.53
2023-03-01T21:37:08.198Z,7.22
2023-03-01T21:39:35.441Z,4.35
2023-03-01T21:42:04.299Z,7.03
2023-03-01T21:44:32.632Z,6.05
2023-03-01T21:46:59.963Z,7.13
2023-03-01T21:49:27.765Z,6.47
2023-03-01T21:51:55.193Z,4.55
2023-03-01T21:54:22.464Z,6.32
2023-03-01T21:56:51.026Z,5.68
2023-03-01T21:59:20.961Z,4.72
2023-03-01T22:01:48.879Z,5.97
2023-03-01T22:04:16.442Z,4.05
2023-03-01T22:06:46.155Z,4.95
2023-03-01T22:09:17.561Z,5.78
2023-03-01T22:11:47.381Z,4.05
2023-03-01T22:14:14.946Z,5.35
2023-03-01T22:16:45.353Z,6.00
2023-03-01T22:19:14.772Z,5.00
2023-03-01T22:21:44.237Z,7.60
2023-03-01T22:24:12.310Z,5.30
2023-03-01T22:26:42.488Z,6.18
2023-03-01T22:29:17.793Z,5.20
2023-03-01T22:31:45.485Z,5.50
2023-03-01T22:34:14.883Z,5.00
2023-03-01T22:36:41.986Z,6.63
2023-03-01T22:39:09.198Z,4.28
2023-03-01T22:41:41.532Z,5.55
2023-03-01T22:44:09.046Z,5.18
2023-03-01T22:46:36.373Z,7.70
2023-03-01T22:49:05.468Z,5.65
2023-03-01T22:51:35.252Z,4.63
2023-03-01T22:54:02.692Z,5.35
2023-03-01T22:56:33.236Z,5.63
2023-03-01T22:59:05.708Z,5.53
2023-03-01T23:01:32.866Z,5.25
2023-03-01T23:03:59.996Z,4.90
2023-03-01T23:06:30.918Z,5.80
2023-03-01T23:09:01.034Z,4.40
2023-03-01T23:11:28.810Z,4.97
2023-03-01T23:13:56.428Z,4.60
2023-03-01T23:16:27.117Z,4.57
2023-03-01T23:19:00.997Z,7.57
2023-03-01T23:21:28.349Z,5.15
2023-03-01T23:23:56.283Z,4.18
2023-03-01T23:26:28.581Z,4.95
2023-03-01T23:28:57.182Z,4.65
2023-03-01T23:31:30.304Z,6.60
2023-03-01T23:33:57.603Z,4.60
2023-03-01T23:36:27.148Z,5.03
2023-03-01T23:38:58.082Z,3.93
2023-03-01T23:41:28.004Z,4.68
2023-03-01T23:43:57.603Z,4.15
2023-03-01T23:46:27.267Z,4.07
2023-03-01T23:48:54.809Z,5.53
2023-03-01T23:51:22.676Z,4.32
2023-03-01T23:53:56.158Z,4.43
2023-03-01T23:56:26.349Z,4.32
2023-03-01T23:59:01.576Z,4.15
